Time;durP1;ratioP1;P1;durP2;ratioP2;P2;SDS_P1;SDS_P2;PMS_P1;PMS_P2;Temp;Humidity;BMP_temperature;BMP_pressure;BME280_temperature;BME280_humidity;BME280_pressure;Samples;Min_cycle;Max_cycle;Signal;HPM_P1;HPM_P2
2021/01/17 00:00:50;;;;;;;;;;;-2.40;99.90;;;;;;5071156;28;20003;-75
2021/01/17 00:03:16;;;;;;;;;;;-2.40;99.90;;;;;;5072496;28;20008;-75
2021/01/17 00:05:42;;;;;;;;;;;-2.40;99.90;;;;;;5071951;28;20353;-75
2021/01/17 00:08:08;;;;;;;;;;;-2.30;99.90;;;;;;5072130;28;19962;-75
2021/01/17 00:10:34;;;;;;;;;;;-2.30;99.90;;;;;;5072426;28;19915;-75
2021/01/17 00:12:59;;;;;;;;;;;-2.30;99.90;;;;;;5078861;28;20272;-75
2021/01/17 00:15:25;;;;;;;;;;;-2.30;99.90;;;;;;5077445;28;19912;-75
2021/01/17 00:17:50;;;;;;;;;;;-2.30;99.90;;;;;;5083249;28;19912;-76
2021/01/17 00:20:20;;;;;;;;;;;-2.30;99.90;;;;;;5074152;28;19913;-75
2021/01/17 00:22:45;;;;;;;;;;;-2.30;99.90;;;;;;5074718;28;20263;-75
2021/01/17 00:25:12;;;;;;;;;;;-2.30;99.90;;;;;;5070321;28;19962;-76
2021/01/17 00:27:38;;;;;;;;;;;-2.20;99.90;;;;;;5071802;28;19909;-76
2021/01/17 00:30:04;;;;;;;;;;;-2.20;99.90;;;;;;5071829;28;19931;-76
2021/01/17 00:32:30;;;;;;;;;;;-2.20;99.90;;;;;;5076308;28;19908;-76
2021/01/17 00:34:55;;;;;;;;;;;-2.20;99.90;;;;;;5080981;28;19915;-76
2021/01/17 00:37:21;;;;;;;;;;;-2.20;99.90;;;;;;5091184;28;20281;-76
2021/01/17 00:39:46;;;;;;;;;;;-2.20;99.90;;;;;;5091153;28;19912;-76
2021/01/17 00:42:12;;;;;;;;;;;-2.20;99.90;;;;;;5091478;28;19919;-76
2021/01/17 00:44:38;;;;;;;;;;;-2.20;99.90;;;;;;5091249;28;19908;-76
2021/01/17 00:47:04;;;;;;;;;;;-2.20;99.90;;;;;;5090877;28;19908;-76
2021/01/17 00:49:29;;;;;;;;;;;-2.30;99.90;;;;;;5090925;28;19908;-76
2021/01/17 00:51:55;;;;;;;;;;;-2.40;99.90;;;;;;5091148;28;19912;-76
2021/01/17 00:54:20;;;;;;;;;;;-2.40;99.90;;;;;;5091134;28;19960;-76
2021/01/17 00:56:46;;;;;;;;;;;-2.40;99.90;;;;;;5089575;28;19908;-76
2021/01/17 00:59:11;;;;;;;;;;;-2.40;99.90;;;;;;5078678;28;19916;-76
2021/01/17 01:01:41;;;;;;;;;;;-2.40;99.90;;;;;;5075047;28;19931;-76
2021/01/17 01:04:10;;;;;;;;;;;-2.30;99.90;;;;;;5071416;28;20486;-76
2021/01/17 01:06:36;;;;;;;;;;;-2.30;99.90;;;;;;5070989;28;19962;-76
2021/01/17 01:09:09;;;;;;;;;;;-2.30;99.90;;;;;;5081458;28;19913;-76
2021/01/17 01:11:35;;;;;;;;;;;-2.30;99.90;;;;;;5073868;28;20372;-76
2021/01/17 01:14:00;;;;;;;;;;;-2.40;99.90;;;;;;5071634;28;19916;-76
2021/01/17 01:16:26;;;;;;;;;;;-2.40;99.90;;;;;;5071135;28;20024;-76
2021/01/17 01:18:51;;;;;;;;;;;-2.40;99.90;;;;;;5071125;28;20432;-76
2021/01/17 01:21:24;;;;;;;;;;;-2.40;99.90;;;;;;5071440;28;19923;-76
2021/01/17 01:23:49;;;;;;;;;;;-2.40;99.90;;;;;;5071506;28;19908;-76
2021/01/17 01:26:14;;;;;;;;;;;-2.40;99.90;;;;;;5070959;28;19909;-76
2021/01/17 01:28:41;;;;;;;;;;;-2.40;99.90;;;;;;5071258;28;19912;-76
2021/01/17 01:31:06;;;;;;;;;;;-2.30;99.90;;;;;;5071034;28;20285;-76
2021/01/17 01:33:31;;;;;;;;;;;-2.30;99.90;;;;;;5071208;28;19908;-76
2021/01/17 01:35:57;;;;;;;;;;;-2.30;99.90;;;;;;5070969;28;19948;-76
2021/01/17 01:38:22;;;;;;;;;;;-2.30;99.90;;;;;;5073161;28;19913;-76
2021/01/17 01:40:53;;;;;;;;;;;-2.40;99.90;;;;;;5083612;28;19919;-76
2021/01/17 01:43:20;;;;;;;;;;;-2.40;99.90;;;;;;5071183;28;19970;-76
2021/01/17 01:45:45;;;;;;;;;;;-2.40;99.90;;;;;;5070809;28;20377;-76
2021/01/17 01:48:11;;;;;;;;;;;-2.40;99.90;;;;;;5071021;28;20011;-76
2021/01/17 01:50:36;;;;;;;;;;;-2.40;99.90;;;;;;5071163;28;19912;-76
2021/01/17 01:53:02;;;;;;;;;;;-2.40;99.90;;;;;;5071233;28;19971;-76
2021/01/17 01:55:27;;;;;;;;;;;-2.40;99.90;;;;;;5071613;28;19909;-76
2021/01/17 01:57:54;;;;;;;;;;;-2.40;99.90;;;;;;5070866;28;19919;-76
2021/01/17 02:00:20;;;;;;;;;;;-2.40;99.90;;;;;;5070904;28;20289;-76
2021/01/17 02:02:46;;;;;;;;;;;-2.40;99.90;;;;;;5070915;28;19912;-76
2021/01/17 02:05:12;;;;;;;;;;;-2.40;99.90;;;;;;5071222;28;19970;-76
2021/01/17 02:07:50;;;;;;;;;;;-2.40;99.90;;;;;;5076930;28;19951;-76
2021/01/17 02:10:17;;;;;;;;;;;-2.40;99.90;;;;;;5072313;28;19908;-76
2021/01/17 02:12:46;;;;;;;;;;;-2.40;99.90;;;;;;5073996;28;19912;-76
2021/01/17 02:15:31;;;;;;;;;;;-2.30;99.90;;;;;;5074437;28;19913;-76
2021/01/17 02:17:59;;;;;;;;;;;-2.30;99.90;;;;;;5074141;28;19908;-76
2021/01/17 02:20:25;;;;;;;;;;;-2.30;99.90;;;;;;5074178;28;20392;-76
2021/01/17 02:23:04;;;;;;;;;;;-2.30;99.90;;;;;;5074356;28;19944;-76
2021/01/17 02:25:31;;;;;;;;;;;-2.30;99.90;;;;;;5074001;28;19915;-76
2021/01/17 02:27:57;;;;;;;;;;;-2.30;99.90;;;;;;5072789;28;20491;-76
2021/01/17 02:30:24;;;;;;;;;;;-2.30;99.90;;;;;;5073846;28;19953;-76
2021/01/17 02:32:54;;;;;;;;;;;-2.20;99.90;;;;;;5074103;28;19948;-76
2021/01/17 02:35:20;;;;;;;;;;;-2.20;99.90;;;;;;5073994;28;19916;-76
2021/01/17 02:37:58;;;;;;;;;;;-2.20;99.90;;;;;;5079071;28;19916;-76
2021/01/17 02:40:27;;;;;;;;;;;-2.10;99.90;;;;;;5079921;28;19956;-76
2021/01/17 02:42:53;;;;;;;;;;;-2.10;99.90;;;;;;5073894;28;19966;-76
2021/01/17 02:45:19;;;;;;;;;;;-2.10;99.90;;;;;;5073730;28;20046;-76
2021/01/17 02:47:44;;;;;;;;;;;-2.10;99.90;;;;;;5073621;28;19998;-76
2021/01/17 02:50:10;;;;;;;;;;;-2.20;99.90;;;;;;5073663;28;20353;-76
2021/01/17 02:52:40;;;;;;;;;;;-2.20;99.90;;;;;;5072285;28;19909;-76
2021/01/17 02:55:06;;;;;;;;;;;-2.20;99.90;;;;;;5074041;28;20317;-76
2021/01/17 02:57:34;;;;;;;;;;;-2.20;99.90;;;;;;5073206;28;19912;-76
2021/01/17 03:00:03;;;;;;;;;;;-2.20;99.90;;;;;;5073327;28;19912;-76
2021/01/17 03:02:30;;;;;;;;;;;-2.10;99.90;;;;;;5073490;28;19950;-76
2021/01/17 03:04:59;;;;;;;;;;;-2.10;99.90;;;;;;5073469;28;19955;-76
2021/01/17 03:07:26;;;;;;;;;;;-2.10;99.90;;;;;;5073860;28;19916;-75
2021/01/17 03:09:52;;;;;;;;;;;-2.10;99.90;;;;;;5082771;28;19908;-76
2021/01/17 03:12:18;;;;;;;;;;;-2.10;99.90;;;;;;5082464;28;19931;-76
2021/01/17 03:14:45;;;;;;;;;;;-2.10;99.90;;;;;;5082320;28;19915;-75
2021/01/17 03:17:11;;;;;;;;;;;-2.10;99.90;;;;;;5073265;28;19979;-76
2021/01/17 03:19:36;;;;;;;;;;;-2.00;99.90;;;;;;5072971;28;19916;-76
2021/01/17 03:22:02;;;;;;;;;;;-2.10;99.90;;;;;;5073091;28;20112;-76
2021/01/17 03:24:28;;;;;;;;;;;-2.10;99.90;;;;;;5091896;28;20280;-76
2021/01/17 03:26:53;;;;;;;;;;;-2.10;99.90;;;;;;5092406;28;19915;-76
2021/01/17 03:29:19;;;;;;;;;;;-2.10;99.90;;;;;;5092133;28;20288;-76
2021/01/17 03:31:45;;;;;;;;;;;-2.10;99.90;;;;;;5074135;28;19969;-75
2021/01/17 03:34:10;;;;;;;;;;;-2.10;99.90;;;;;;5072745;28;19909;-76
2021/01/17 03:36:36;;;;;;;;;;;-2.10;99.90;;;;;;5072535;28;19915;-76
2021/01/17 03:39:01;;;;;;;;;;;-2.10;99.90;;;;;;5072597;28;19958;-76
2021/01/17 03:41:27;;;;;;;;;;;-2.10;99.90;;;;;;5072510;28;19908;-75
2021/01/17 03:43:52;;;;;;;;;;;-2.10;99.90;;;;;;5079815;28;20365;-75
2021/01/17 03:46:18;;;;;;;;;;;-2.10;99.90;;;;;;5078443;28;19915;-76
2021/01/17 03:48:44;;;;;;;;;;;-2.10;99.90;;;;;;5072305;28;19919;-76
2021/01/17 03:51:09;;;;;;;;;;;-2.10;99.90;;;;;;5072442;28;20366;-76
2021/01/17 03:53:35;;;;;;;;;;;-2.00;99.90;;;;;;5072451;28;19909;-76
2021/01/17 03:56:00;;;;;;;;;;;-2.00;99.90;;;;;;5071016;28;19916;-76
2021/01/17 03:58:26;;;;;;;;;;;-2.00;99.90;;;;;;5072163;28;19953;-76
2021/01/17 04:00:51;;;;;;;;;;;-2.00;99.90;;;;;;5072322;28;19916;-75
2021/01/17 04:03:17;;;;;;;;;;;-2.00;99.90;;;;;;5072203;28;19909;-75
2021/01/17 04:05:42;;;;;;;;;;;-2.00;99.90;;;;;;5072049;28;19909;-75
2021/01/17 04:08:08;;;;;;;;;;;-2.00;99.90;;;;;;5072431;28;20009;-75
2021/01/17 04:10:33;;;;;;;;;;;-2.00;99.90;;;;;;5072120;28;19909;-75
2021/01/17 04:12:59;;;;;;;;;;;-1.90;99.90;;;;;;5078427;28;19909;-75
2021/01/17 04:15:24;;;;;;;;;;;-1.90;99.90;;;;;;5076742;28;19909;-75
2021/01/17 04:17:49;;;;;;;;;;;-1.90;99.90;;;;;;5079005;28;20307;-75
2021/01/17 04:20:15;;;;;;;;;;;-1.90;99.90;;;;;;5091193;28;20011;-75
2021/01/17 04:22:40;;;;;;;;;;;-1.80;99.90;;;;;;5091399;28;19954;-75
2021/01/17 04:25:06;;;;;;;;;;;-1.80;99.90;;;;;;5091125;28;19961;-75
2021/01/17 04:27:32;;;;;;;;;;;-1.80;99.90;;;;;;5090759;28;19908;-75
2021/01/17 04:29:57;;;;;;;;;;;-1.80;99.90;;;;;;5091359;28;19973;-75
2021/01/17 04:32:24;;;;;;;;;;;-1.80;99.90;;;;;;5091114;28;19944;-75
2021/01/17 04:34:49;;;;;;;;;;;-1.80;99.90;;;;;;5091369;28;19912;-75
2021/01/17 04:37:18;;;;;;;;;;;-1.80;99.90;;;;;;5090695;28;19919;-75
2021/01/17 04:39:44;;;;;;;;;;;-1.80;99.90;;;;;;5091025;28;19916;-75
2021/01/17 04:42:12;;;;;;;;;;;-1.80;99.90;;;;;;5089637;28;20261;-75
2021/01/17 04:44:38;;;;;;;;;;;-1.70;99.90;;;;;;5080392;28;19908;-75
2021/01/17 04:47:05;;;;;;;;;;;-1.70;99.90;;;;;;5071483;28;19909;-75
2021/01/17 04:49:39;;;;;;;;;;;-1.70;99.90;;;;;;5071351;28;19931;-75
2021/01/17 04:52:07;;;;;;;;;;;-1.70;99.90;;;;;;5084748;28;20007;-75
2021/01/17 04:54:33;;;;;;;;;;;-1.70;99.90;;;;;;5090828;28;19912;-75
2021/01/17 04:57:07;;;;;;;;;;;-1.70;99.90;;;;;;5090597;28;19919;-75
2021/01/17 04:59:38;;;;;;;;;;;-1.70;99.90;;;;;;5071102;28;19919;-75
2021/01/17 05:02:16;;;;;;;;;;;-1.70;99.90;;;;;;5071468;28;19995;-75
2021/01/17 05:05:00;;;;;;;;;;;-1.70;99.90;;;;;;5071264;28;19912;-75
2021/01/17 05:07:30;;;;;;;;;;;-1.70;99.90;;;;;;5070917;28;19908;-74
2021/01/17 05:10:06;;;;;;;;;;;-1.70;99.90;;;;;;5071008;28;19915;-75
2021/01/17 05:12:39;;;;;;;;;;;-1.70;99.90;;;;;;5078260;28;20401;-75
2021/01/17 05:15:06;;;;;;;;;;;-1.70;99.90;;;;;;5078347;28;20357;-75
2021/01/17 05:17:39;;;;;;;;;;;-1.70;99.90;;;;;;5070963;28;19912;-75
2021/01/17 05:20:05;;;;;;;;;;;-1.60;99.90;;;;;;5071237;28;19913;-75
2021/01/17 05:22:31;;;;;;;;;;;-1.60;99.90;;;;;;5071021;28;19917;-75
2021/01/17 05:24:57;;;;;;;;;;;-1.60;99.90;;;;;;5071205;28;20285;-75
2021/01/17 05:27:22;;;;;;;;;;;-1.60;99.90;;;;;;5070706;28;19917;-75
2021/01/17 05:29:48;;;;;;;;;;;-1.60;99.90;;;;;;5071103;28;19963;-75
2021/01/17 05:32:15;;;;;;;;;;;-1.60;99.90;;;;;;5069816;28;19919;-75
2021/01/17 05:34:40;;;;;;;;;;;-1.60;99.90;;;;;;5070863;28;19909;-76
2021/01/17 05:37:13;;;;;;;;;;;-1.60;99.90;;;;;;5070669;28;19969;-76
2021/01/17 05:39:57;;;;;;;;;;;-1.50;99.90;;;;;;5070803;28;19913;-75
2021/01/17 05:42:27;;;;;;;;;;;-1.50;99.90;;;;;;5078545;28;20308;-76
2021/01/17 05:44:57;;;;;;;;;;;-1.50;99.90;;;;;;5076831;28;19912;-76
2021/01/17 05:47:23;;;;;;;;;;;-1.50;99.90;;;;;;5073357;28;19962;-76
2021/01/17 05:49:49;;;;;;;;;;;-1.40;99.90;;;;;;5074601;28;20023;-75
2021/01/17 05:52:16;;;;;;;;;;;-1.40;99.90;;;;;;5074726;28;19915;-76
2021/01/17 05:54:42;;;;;;;;;;;-1.40;99.90;;;;;;5074766;28;20354;-76
2021/01/17 05:57:18;;;;;;;;;;;-1.30;99.90;;;;;;5074264;28;20483;-76
2021/01/17 05:59:43;;;;;;;;;;;-1.30;99.90;;;;;;5074447;28;20016;-76
2021/01/17 06:02:16;;;;;;;;;;;-1.30;99.90;;;;;;5074463;28;19908;-76
2021/01/17 06:04:42;;;;;;;;;;;-1.30;99.90;;;;;;5074734;28;19909;-76
2021/01/17 06:07:08;;;;;;;;;;;-1.30;99.90;;;;;;5074146;28;19912;-76
2021/01/17 06:09:36;;;;;;;;;;;-1.30;99.90;;;;;;5074330;28;19908;-75
2021/01/17 06:12:02;;;;;;;;;;;-1.30;99.90;;;;;;5076522;28;19928;-76
2021/01/17 06:14:27;;;;;;;;;;;-1.20;99.90;;;;;;5081699;28;19912;-75
2021/01/17 06:17:11;;;;;;;;;;;-1.20;99.90;;;;;;5074483;28;19916;-76
2021/01/17 06:19:37;;;;;;;;;;;-1.20;99.90;;;;;;5087054;28;19971;-76
2021/01/17 06:22:04;;;;;;;;;;;-1.10;99.90;;;;;;5074210;28;19917;-75
2021/01/17 06:24:40;;;;;;;;;;;-1.20;99.90;;;;;;5093788;28;19908;-74
2021/01/17 06:27:06;;;;;;;;;;;-1.30;99.90;;;;;;5092940;28;19908;-74
2021/01/17 06:29:35;;;;;;;;;;;-1.30;99.90;;;;;;5093407;28;19916;-75
2021/01/17 06:32:11;;;;;;;;;;;-1.20;99.90;;;;;;5093507;28;19920;-75
2021/01/17 06:34:41;;;;;;;;;;;-1.20;99.90;;;;;;5093487;28;20398;-75
2021/01/17 06:37:09;;;;;;;;;;;-1.20;99.90;;;;;;5092496;28;19909;-74
2021/01/17 06:39:40;;;;;;;;;;;-1.20;99.90;;;;;;5076010;28;19917;-75
2021/01/17 06:42:08;;;;;;;;;;;-1.20;99.90;;;;;;5073471;28;19909;-75
2021/01/17 06:44:34;;;;;;;;;;;-1.10;99.90;;;;;;5073290;28;20005;-75
2021/01/17 06:47:00;;;;;;;;;;;-1.10;99.90;;;;;;5078945;28;20384;-75
2021/01/17 06:49:26;;;;;;;;;;;-1.10;99.90;;;;;;5076874;28;20585;-75
2021/01/17 06:51:53;;;;;;;;;;;-1.10;99.90;;;;;;5072729;28;19966;-75
2021/01/17 06:54:20;;;;;;;;;;;-1.10;99.90;;;;;;5077173;28;19912;-74
2021/01/17 06:56:46;;;;;;;;;;;-1.20;99.90;;;;;;5079386;28;20373;-75
2021/01/17 06:59:11;;;;;;;;;;;-1.20;99.90;;;;;;5071424;28;19999;-75
2021/01/17 07:01:43;;;;;;;;;;;-1.20;99.90;;;;;;5072531;28;20053;-75
2021/01/17 07:04:09;;;;;;;;;;;-1.10;99.90;;;;;;5075777;28;19959;-75
2021/01/17 07:06:53;;;;;;;;;;;-1.10;99.90;;;;;;5072865;28;19974;-75
2021/01/17 07:09:24;;;;;;;;;;;-1.10;99.90;;;;;;5073308;28;19909;-75
2021/01/17 07:11:58;;;;;;;;;;;-1.10;99.90;;;;;;5078508;28;20357;-75
2021/01/17 07:14:29;;;;;;;;;;;-1.10;99.90;;;;;;5081516;28;19963;-75
2021/01/17 07:16:56;;;;;;;;;;;-1.10;99.90;;;;;;5082956;28;19912;-75
2021/01/17 07:19:29;;;;;;;;;;;-1.10;99.90;;;;;;5079495;28;19920;-75
2021/01/17 07:21:55;;;;;;;;;;;-1.10;99.90;;;;;;5073229;28;19908;-75
2021/01/17 07:24:21;;;;;;;;;;;-1.10;99.90;;;;;;5073364;28;19999;-75
2021/01/17 07:26:55;;;;;;;;;;;-1.10;99.90;;;;;;5072801;28;20292;-75
2021/01/17 07:29:25;;;;;;;;;;;-1.10;99.90;;;;;;5072867;28;19908;-75
2021/01/17 07:31:53;;;;;;;;;;;-1.20;99.90;;;;;;5074119;28;19916;-75
2021/01/17 07:34:20;;;;;;;;;;;-1.20;99.90;;;;;;5078423;28;19909;-75
2021/01/17 07:36:49;;;;;;;;;;;-1.20;99.90;;;;;;5077422;28;19909;-75
2021/01/17 07:39:20;;;;;;;;;;;-1.20;99.90;;;;;;5072822;28;19913;-74
2021/01/17 07:41:50;;;;;;;;;;;-1.20;99.90;;;;;;5072839;28;19912;-75
2021/01/17 07:44:16;;;;;;;;;;;-1.20;99.90;;;;;;5072693;28;20335;-75
2021/01/17 07:46:42;;;;;;;;;;;-1.20;99.90;;;;;;5072370;28;19934;-75
2021/01/17 07:49:10;;;;;;;;;;;-1.10;99.90;;;;;;5072855;28;20416;-75
2021/01/17 07:51:35;;;;;;;;;;;-1.10;99.90;;;;;;5072843;28;19960;-75
2021/01/17 07:54:12;;;;;;;;;;;-1.10;99.90;;;;;;5072555;28;19956;-74
2021/01/17 07:56:37;;;;;;;;;;;-1.00;99.90;;;;;;5071983;28;20323;-75
2021/01/17 07:59:04;;;;;;;;;;;-1.00;99.90;;;;;;5072307;28;19919;-75
2021/01/17 08:01:38;;;;;;;;;;;-1.10;99.90;;;;;;5072296;28;19916;-75
2021/01/17 08:04:04;;;;;;;;;;;-1.00;99.90;;;;;;5081130;28;20416;-75
2021/01/17 08:06:35;;;;;;;;;;;-1.00;99.90;;;;;;5073137;28;19951;-75
2021/01/17 08:09:07;;;;;;;;;;;-1.00;99.90;;;;;;5071690;28;19908;-74
2021/01/17 08:11:48;;;;;;;;;;;-0.90;99.90;;;;;;5072064;28;20341;-75
2021/01/17 08:14:19;;;;;;;;;;;-0.90;99.90;;;;;;5085509;28;19927;-75
2021/01/17 08:17:05;;;;;;;;;;;-0.80;99.90;;;;;;5089992;28;19908;-75
2021/01/17 08:19:36;;;;;;;;;;;-0.80;99.90;;;;;;5091341;28;19923;-75
2021/01/17 08:22:16;;;;;;;;;;;-0.70;99.90;;;;;;5091510;28;19995;-75
2021/01/17 08:24:42;;;;;;;;;;;-0.70;99.90;;;;;;5091424;28;20360;-75
2021/01/17 08:27:08;;;;;;;;;;;-0.60;99.90;;;;;;5091046;28;19909;-75
2021/01/17 08:29:52;;;;;;;;;;;-0.60;99.90;;;;;;5091632;28;19997;-75
2021/01/17 08:32:45;;;;;;;;;;;-0.60;99.90;;;;;;5085704;28;20042;-75
2021/01/17 08:35:10;;;;;;;;;;;-0.50;99.90;;;;;;5081856;28;19962;-75
2021/01/17 08:37:39;;;;;;;;;;;-0.60;99.90;;;;;;5071320;28;19908;-75
2021/01/17 08:40:06;;;;;;;;;;;-0.60;99.90;;;;;;5071660;28;19960;-75
2021/01/17 08:42:32;;;;;;;;;;;-0.60;99.90;;;;;;5071423;28;19909;-75
2021/01/17 08:44:58;;;;;;;;;;;-0.50;99.90;;;;;;5071697;28;19912;-75
2021/01/17 08:47:24;;;;;;;;;;;-0.50;99.90;;;;;;5071382;28;20266;-75
2021/01/17 08:49:50;;;;;;;;;;;-0.40;99.90;;;;;;5071552;28;19915;-75
2021/01/17 08:52:28;;;;;;;;;;;-0.30;99.90;;;;;;5071546;28;19915;-74
2021/01/17 08:54:54;;;;;;;;;;;-0.20;99.90;;;;;;5071499;28;20000;-75
2021/01/17 08:57:38;;;;;;;;;;;-0.20;99.90;;;;;;5071245;28;20004;-75
2021/01/17 09:00:24;;;;;;;;;;;-0.10;99.90;;;;;;5084907;28;19912;-75
2021/01/17 09:03:10;;;;;;;;;;;-0.10;99.90;;;;;;5082526;28;19908;-74
2021/01/17 09:05:35;;;;;;;;;;;-0.20;99.90;;;;;;5079950;28;20385;-75
2021/01/17 09:08:03;;;;;;;;;;;-0.20;99.90;;;;;;5072100;28;19940;-74
2021/01/17 09:10:31;;;;;;;;;;;-0.10;99.90;;;;;;5074018;28;19908;-74
2021/01/17 09:12:58;;;;;;;;;;;0.00;99.90;;;;;;5070981;28;20011;-75
2021/01/17 09:15:26;;;;;;;;;;;0.10;99.90;;;;;;5070349;28;19912;-74
2021/01/17 09:17:56;;;;;;;;;;;0.20;99.90;;;;;;5069806;28;20278;-74
2021/01/17 09:20:21;;;;;;;;;;;0.30;99.90;;;;;;5070164;28;19965;-74
2021/01/17 09:22:48;;;;;;;;;;;0.50;99.90;;;;;;5076543;28;19991;-74
2021/01/17 09:25:14;;;;;;;;;;;0.60;99.90;;;;;;5086515;28;19912;-74
2021/01/17 09:27:40;;;;;;;;;;;0.60;99.90;;;;;;5075750;28;19918;-74
2021/01/17 09:30:07;;;;;;;;;;;0.70;99.90;;;;;;5075198;28;19920;-74
2021/01/17 09:32:34;;;;;;;;;;;0.80;99.90;;;;;;5080329;28;20056;-74
2021/01/17 09:35:02;;;;;;;;;;;0.90;99.90;;;;;;5083244;28;19908;-74
2021/01/17 09:37:31;;;;;;;;;;;0.90;99.90;;;;;;5075136;28;19947;-74
2021/01/17 09:39:57;;;;;;;;;;;1.00;99.90;;;;;;5075000;28;20285;-74
2021/01/17 09:42:24;;;;;;;;;;;1.10;99.90;;;;;;5075208;28;19934;-74
2021/01/17 09:44:51;;;;;;;;;;;1.10;99.90;;;;;;5075238;28;20373;-75
2021/01/17 09:47:17;;;;;;;;;;;1.20;99.90;;;;;;5073382;28;19973;-74
2021/01/17 09:49:44;;;;;;;;;;;1.20;99.90;;;;;;5074523;28;19938;-75
2021/01/17 09:52:10;;;;;;;;;;;1.30;99.90;;;;;;5074898;28;20289;-75
2021/01/17 09:54:36;;;;;;;;;;;1.40;99.90;;;;;;5074841;28;19956;-75
2021/01/17 09:57:11;;;;;;;;;;;1.40;99.90;;;;;;5074435;28;19937;-75
2021/01/17 09:59:36;;;;;;;;;;;1.40;99.90;;;;;;5074544;28;20365;-75
2021/01/17 10:02:04;;;;;;;;;;;1.40;99.90;;;;;;5074686;28;19916;-75
2021/01/17 10:04:30;;;;;;;;;;;1.40;99.90;;;;;;5088277;28;19913;-75
2021/01/17 10:06:56;;;;;;;;;;;1.40;99.90;;;;;;5075131;28;20301;-75
2021/01/17 10:09:22;;;;;;;;;;;1.40;99.90;;;;;;5074467;28;19963;-75
2021/01/17 10:12:01;;;;;;;;;;;1.40;99.90;;;;;;5074116;28;20075;-75
2021/01/17 10:14:28;;;;;;;;;;;1.30;99.90;;;;;;5084328;28;19908;-75
2021/01/17 10:16:53;;;;;;;;;;;1.30;99.90;;;;;;5074016;28;20011;-75
2021/01/17 10:19:23;;;;;;;;;;;1.30;99.90;;;;;;5093727;28;20010;-75
2021/01/17 10:21:48;;;;;;;;;;;1.30;99.90;;;;;;5093982;28;19908;-75
2021/01/17 10:24:18;;;;;;;;;;;1.30;99.90;;;;;;5093834;28;19908;-75
2021/01/17 10:26:48;;;;;;;;;;;1.40;99.90;;;;;;5093297;28;19954;-75
2021/01/17 10:29:13;;;;;;;;;;;1.50;99.90;;;;;;5072848;28;19919;-75
2021/01/17 10:31:40;;;;;;;;;;;1.60;99.90;;;;;;5073945;28;19916;-75
2021/01/17 10:34:05;;;;;;;;;;;1.60;99.90;;;;;;5074178;28;20023;-75
2021/01/17 10:36:31;;;;;;;;;;;1.70;99.90;;;;;;5073697;28;20373;-75
2021/01/17 10:38:56;;;;;;;;;;;1.80;99.90;;;;;;5072555;28;19908;-75
2021/01/17 10:41:26;;;;;;;;;;;1.90;99.90;;;;;;5073323;28;19916;-75
2021/01/17 10:44:01;;;;;;;;;;;2.00;99.90;;;;;;5091260;28;19908;-75
2021/01/17 10:46:27;;;;;;;;;;;2.00;99.90;;;;;;5077650;28;19961;-75
2021/01/17 10:48:53;;;;;;;;;;;2.20;99.90;;;;;;5073647;28;19916;-75
2021/01/17 10:51:25;;;;;;;;;;;2.30;99.90;;;;;;5073871;28;19908;-75
2021/01/17 10:53:52;;;;;;;;;;;2.20;99.90;;;;;;5072431;28;19957;-75
2021/01/17 10:56:21;;;;;;;;;;;2.30;99.90;;;;;;5072676;28;19999;-75
2021/01/17 10:58:48;;;;;;;;;;;2.50;99.90;;;;;;5073732;28;20041;-75
2021/01/17 11:01:13;;;;;;;;;;;2.60;99.90;;;;;;5074740;28;19976;-75
2021/01/17 11:03:42;;;;;;;;;;;2.70;99.90;;;;;;5092966;28;20416;-75
2021/01/17 11:06:21;;;;;;;;;;;2.70;99.90;;;;;;5092291;28;19908;-75
2021/01/17 11:08:47;;;;;;;;;;;2.70;99.90;;;;;;5092879;28;20276;-75
2021/01/17 11:11:14;;;;;;;;;;;2.70;99.90;;;;;;5092638;28;19926;-75
2021/01/17 11:13:40;;;;;;;;;;;2.80;99.90;;;;;;5080777;28;19930;-75
2021/01/17 11:16:05;;;;;;;;;;;2.80;99.90;;;;;;5079469;28;19908;-75
2021/01/17 11:18:32;;;;;;;;;;;2.80;99.90;;;;;;5073246;28;19908;-74
2021/01/17 11:20:58;;;;;;;;;;;2.90;99.90;;;;;;5073041;28;19916;-75
2021/01/17 11:23:24;;;;;;;;;;;2.90;99.90;;;;;;5073240;28;19998;-74
2021/01/17 11:25:57;;;;;;;;;;;2.90;99.90;;;;;;5072890;28;19908;-75
2021/01/17 11:28:23;;;;;;;;;;;2.80;99.90;;;;;;5073116;28;19952;-74
2021/01/17 11:30:49;;;;;;;;;;;2.80;99.90;;;;;;5073147;28;19916;-75
2021/01/17 11:33:14;;;;;;;;;;;2.80;99.90;;;;;;5072914;28;19908;-75
2021/01/17 11:35:40;;;;;;;;;;;2.80;99.90;;;;;;5072671;28;20297;-75
2021/01/17 11:38:07;;;;;;;;;;;2.80;99.90;;;;;;5072952;28;19915;-75
2021/01/17 11:40:33;;;;;;;;;;;2.80;99.90;;;;;;5072933;28;19927;-76
2021/01/17 11:43:05;;;;;;;;;;;2.70;99.90;;;;;;5079243;28;20387;-76
2021/01/17 11:45:30;;;;;;;;;;;2.60;99.90;;;;;;5077632;28;19908;-76
2021/01/17 11:47:59;;;;;;;;;;;2.60;99.90;;;;;;5073308;28;19953;-75
2021/01/17 11:50:25;;;;;;;;;;;2.60;99.90;;;;;;5073814;28;19912;-76
2021/01/17 11:53:00;;;;;;;;;;;2.50;99.90;;;;;;5072837;28;19916;-76
2021/01/17 11:55:27;;;;;;;;;;;2.50;99.90;;;;;;5072632;28;19919;-76
2021/01/17 11:58:11;;;;;;;;;;;2.50;99.90;;;;;;5072789;28;19909;-76
2021/01/17 12:00:50;;;;;;;;;;;2.40;99.90;;;;;;5073642;28;19913;-77
2021/01/17 12:03:48;;;;;;;;;;;2.50;99.90;;;;;;5085887;28;20373;-76
2021/01/17 12:06:17;;;;;;;;;;;2.40;99.90;;;;;;5057793;28;19958;-76
2021/01/17 12:08:52;;;;;;;;;;;2.40;99.90;;;;;;5079974;28;19930;-76
2021/01/17 12:11:31;;;;;;;;;;;2.40;99.90;;;;;;5072003;28;19912;-75
2021/01/17 12:13:56;;;;;;;;;;;2.40;99.90;;;;;;5078963;28;20019;-76
2021/01/17 12:16:42;;;;;;;;;;;2.50;99.90;;;;;;5076243;28;19944;-76
2021/01/17 12:19:08;;;;;;;;;;;2.60;99.90;;;;;;5072014;28;19915;-76
2021/01/17 12:21:34;;;;;;;;;;;2.60;99.90;;;;;;5072429;28;20369;-76
2021/01/17 12:24:00;;;;;;;;;;;2.70;99.90;;;;;;5072265;28;19908;-76
2021/01/17 12:26:26;;;;;;;;;;;2.80;99.90;;;;;;5071783;28;19913;-76
2021/01/17 12:28:51;;;;;;;;;;;2.80;99.90;;;;;;5072137;28;19917;-76
2021/01/17 12:31:18;;;;;;;;;;;2.80;99.90;;;;;;5072119;28;19923;-76
2021/01/17 12:33:44;;;;;;;;;;;2.80;99.90;;;;;;5072487;28;20264;-76
2021/01/17 12:36:10;;;;;;;;;;;2.70;99.90;;;;;;5071852;28;19916;-76
2021/01/17 12:38:36;;;;;;;;;;;2.80;99.90;;;;;;5072160;28;19915;-76
2021/01/17 12:41:06;;;;;;;;;;;2.80;99.90;;;;;;5071929;28;19912;-76
2021/01/17 12:43:31;;;;;;;;;;;2.70;99.90;;;;;;5075767;28;19909;-76
2021/01/17 12:45:57;;;;;;;;;;;2.80;99.90;;;;;;5078238;28;20023;-76
2021/01/17 12:48:22;;;;;;;;;;;2.80;99.90;;;;;;5071679;28;19916;-76
2021/01/17 12:50:48;;;;;;;;;;;2.80;99.90;;;;;;5085282;28;19912;-76
2021/01/17 12:53:13;;;;;;;;;;;2.80;99.90;;;;;;5077744;28;19916;-76
2021/01/17 12:55:43;;;;;;;;;;;2.80;99.90;;;;;;5069896;28;19995;-76
2021/01/17 12:58:08;;;;;;;;;;;2.70;99.90;;;;;;5071897;28;20319;-76
2021/01/17 13:00:34;;;;;;;;;;;2.70;99.90;;;;;;5071695;28;19918;-75
2021/01/17 13:03:01;;;;;;;;;;;2.60;99.90;;;;;;5071366;28;19929;-75
2021/01/17 13:05:26;;;;;;;;;;;2.50;99.90;;;;;;5084541;28;20003;-75
2021/01/17 13:07:52;;;;;;;;;;;2.50;99.90;;;;;;5090777;28;19940;-75
2021/01/17 13:10:17;;;;;;;;;;;2.50;99.90;;;;;;5078518;28;20426;-75
2021/01/17 13:12:43;;;;;;;;;;;2.40;99.90;;;;;;5080800;28;19912;-75
2021/01/17 13:15:08;;;;;;;;;;;2.50;99.90;;;;;;5078627;28;19934;-75
2021/01/17 13:17:34;;;;;;;;;;;2.50;99.90;;;;;;5071165;28;19912;-75
2021/01/17 13:19:59;;;;;;;;;;;2.50;99.90;;;;;;5083163;28;19912;-75
2021/01/17 13:22:28;;;;;;;;;;;2.50;99.90;;;;;;5091089;28;19998;-74
2021/01/17 13:24:54;;;;;;;;;;;2.40;99.90;;;;;;5090993;28;19920;-76
2021/01/17 13:27:19;;;;;;;;;;;2.50;99.90;;;;;;5086770;28;19908;-75
2021/01/17 13:29:45;;;;;;;;;;;2.50;99.90;;;;;;5080100;28;19908;-76
2021/01/17 13:32:10;;;;;;;;;;;2.50;99.90;;;;;;5073374;28;19916;-75
2021/01/17 13:34:36;;;;;;;;;;;2.50;99.90;;;;;;5074750;28;19931;-75
2021/01/17 13:37:01;;;;;;;;;;;2.50;99.90;;;;;;5081074;28;19916;-76
2021/01/17 13:39:26;;;;;;;;;;;2.60;99.90;;;;;;5073727;28;20273;-76
2021/01/17 13:41:52;;;;;;;;;;;2.50;99.90;;;;;;5079667;28;19909;-76
2021/01/17 13:44:17;;;;;;;;;;;2.50;99.90;;;;;;5071597;28;19912;-75
2021/01/17 13:46:48;;;;;;;;;;;2.50;99.90;;;;;;5070733;28;19948;-75
2021/01/17 13:49:14;;;;;;;;;;;2.50;99.90;;;;;;5076654;28;19923;-75
2021/01/17 13:51:39;;;;;;;;;;;2.50;99.90;;;;;;5074671;28;19909;-75
2021/01/17 13:54:05;;;;;;;;;;;2.40;99.90;;;;;;5084838;28;19908;-76
2021/01/17 13:56:30;;;;;;;;;;;2.40;99.90;;;;;;5078997;28;19957;-76
2021/01/17 13:58:56;;;;;;;;;;;2.40;99.90;;;;;;5086580;28;20249;-76
2021/01/17 14:01:21;;;;;;;;;;;2.40;99.90;;;;;;5076883;28;19909;-75
2021/01/17 14:03:47;;;;;;;;;;;2.40;99.90;;;;;;5071219;28;20031;-76
2021/01/17 14:06:12;;;;;;;;;;;2.50;99.90;;;;;;5079601;28;19908;-76
2021/01/17 14:08:38;;;;;;;;;;;2.50;99.90;;;;;;5087626;28;19908;-76
2021/01/17 14:11:03;;;;;;;;;;;2.50;99.90;;;;;;5075273;28;19973;-75
2021/01/17 14:13:30;;;;;;;;;;;2.50;99.90;;;;;;5093076;28;19909;-76
2021/01/17 14:15:55;;;;;;;;;;;2.50;99.90;;;;;;5074653;28;19909;-76
2021/01/17 14:18:20;;;;;;;;;;;2.50;99.90;;;;;;5078718;28;20440;-76
2021/01/17 14:20:46;;;;;;;;;;;2.40;99.90;;;;;;5088289;28;19912;-76
2021/01/17 14:23:11;;;;;;;;;;;2.30;99.90;;;;;;5076140;28;19915;-76
2021/01/17 14:25:37;;;;;;;;;;;2.40;99.90;;;;;;5076634;28;20281;-75